Аэропорт: Наримановка. Костанай

ICAO: UAUU

METAR:
2018/05/20 23:00
UAUU 202300Z 24005MPS CAVOK 14/06 Q1015 R15/CLRD70 NOSIG RMK QFE745/0993
METAR:
2017/12/04 06:03
TAF TAF UAUU 040500Z 0406/0418 20005MPS 6000 SCT006 BKN010CB 
      TEMPO 0407/0415 20012MPS 2000 -SHSN BLSN